Data for 04/11/2017

Time Sea-Level Adjusted Pressure Absolute Pressure Temperature Relative Humidity Dew Point   
(mb) (inHg) (mb) (inHg) (C) (F) (%) (C) (F)
00:05 1021 30.15 850 25.1 0.2 32.4 90 -1.2 29.8
00:10 1021 30.15 850 25.1 0.2 32.3 91 -1.2 29.9
00:15 1021 30.15 850 25.1 0.1 32.3 91 -1.2 29.9
00:20 1021 30.15 850 25.1 0.1 32.2 91 -1.2 29.9
00:25 1021 30.15 850 25.1 0 32.1 91 -1.2 29.8
00:30 1021 30.15 850 25.1 0.1 32.1 91 -1.2 29.9
00:35 1021 30.15 850 25.1 0.1 32.1 91 -1.2 29.8
00:40 1021 30.15 850 25.1 0.1 32.2 91 -1.2 29.9
00:45 1021 30.15 850 25.1 0.1 32.1 91 -1.2 29.8
00:50 1021 30.15 850 25.1 0.1 32.2 91 -1.2 29.9
00:55 1021 30.15 850 25.1 0.2 32.4 91 -1.1 30
01:00 1021 30.15 850 25.1 0.3 32.5 90 -1.2 29.8
01:05 1021 30.15 850 25.1 0.2 32.3 89 -1.4 29.5
01:10 1021 30.15 850 25.1 0.2 32.4 89 -1.4 29.5
01:15 1021 30.15 850 25.1 0.2 32.3 89 -1.4 29.5
01:20 1021 30.15 850 25.1 0.2 32.4 89 -1.3 29.6
01:25 1021 30.15 850 25.1 0.3 32.6 86 -1.8 28.7
01:30 1021 30.15 850 25.1 0.7 33.2 82 -2.1 28.3
01:35 1021 30.15 850 25.1 0.8 33.5 82 -1.9 28.5
01:40 1021 30.15 850 25.1 0.8 33.5 85 -1.4 29.4
01:45 1021 30.15 850 25.1 0.6 33.1 86 -1.5 29.2
01:50 1021 30.15 850 25.1 0.2 32.4 86 -1.8 28.7
01:55 1021 30.15 850 25.1 0.2 32.4 85 -2 28.3
02:00 1021 30.15 850 25.1 0.2 32.4 85 -2 28.4
02:05 1021 30.15 850 25.1 0.2 32.4 85 -2.1 28.2
02:10 1021 30.15 850 25.1 0.2 32.3 85 -2.1 28.3
02:15 1021 30.15 850 25.1 0.2 32.4 85 -2 28.4
02:20 1021 30.15 850 25.1 0.2 32.4 86 -1.8 28.8
02:25 1021 30.15 850 25.1 0.1 32.2 87 -1.7 28.9
02:30 1021 30.15 850 25.1 0.1 32.1 87 -1.8 28.8
02:35 1021 30.15 850 25.1 -0 32 88 -1.8 28.7
02:40 1021 30.15 850 25.1 -0.2 31.7 88 -1.9 28.5
02:45 1021 30.15 850 25.1 -0.4 31.4 88 -2.1 28.2
02:50 1021 30.15 850 25.1 -0.4 31.2 88 -2.1 28.2
02:55 1021 30.15 850 25.1 -0.5 31.1 89 -2.1 28.2
03:00 1021 30.15 850 25.1 -0.5 31 89 -2.1 28.1
03:05 1021 30.15 850 25.1 -0.6 30.9 90 -2.1 28.1
03:10 1021 30.15 850 25.1 -0.7 30.8 90 -2.1 28.2
03:15 1021 30.15 850 25.1 -0.6 30.9 90 -2 28.3
03:20 1021 30.15 850 25.1 -0.6 31 90 -2.1 28.3
03:25 1021 30.15 850 25.1 -0.7 30.8 89 -2.2 28
03:30 1021 30.15 850 25.1 -0.9 30.4 89 -2.5 27.5
03:35 1021 30.15 850 25.1 -1 30.1 89 -2.6 27.4
03:40 1021 30.15 850 25.1 -1.1 30 90 -2.6 27.4
03:45 1021 30.15 850 25.1 -1.1 30 90 -2.5 27.4
03:50 1021 30.15 850 25.1 -0.9 30.3 88 -2.6 27.3
03:55 1021 30.15 850 25.1 -1 30.3 87 -2.8 26.9
04:00 1021 30.15 850 25.1 -1 30.2 83 -3.6 25.6
04:05 1021 30.15 850 25.1 -1.1 30.1 86 -3.2 26.3
04:10 1021 30.15 850 25.1 -1.5 29.3 87 -3.5 25.8
04:15 1021 30.15 850 25.1 -1.7 28.9 85 -3.9 25
04:20 1021 30.15 850 25.1 -1.7 29 82 -4.3 24.2
04:25 1021 30.15 850 25.1 -1.6 29.2 83 -4.1 24.6
04:30 1021 30.15 850 25.1 -2 28.4 85 -4.3 24.3
04:35 1021 30.15 850 25.1 -2 28.3 82 -4.7 23.6
04:40 1021 30.15 850 25.1 -1.6 29.1 81 -4.5 23.9
04:45 1021 30.15 850 25.1 -1.8 28.8 81 -4.6 23.8
04:50 1021 30.15 850 25.1 -2 28.5 82 -4.7 23.5
04:55 1021 30.15 850 25.1 -2.1 28.3 82 -4.7 23.5
05:00 1021 30.15 850 25.1 -2.2 28 82 -4.9 23.1
05:05 1021 30.15 850 25.1 -2.2 28.1 80 -5.2 22.7
05:10 1021 30.15 850 25.1 -2.1 28.1 80 -5.2 22.6
05:15 1021 30.15 850 25.1 -2.2 28 80 -5.2 22.7
05:20 1021 30.15 850 25.1 -2.2 28.1 78 -5.4 22.2
05:25 1021 30.15 850 25.1 -2.2 28.1 79 -5.3 22.4
05:30 1021 30.15 850 25.1 -2.3 27.8 78 -5.7 21.7
05:35 1021 30.15 850 25.1 -2.4 27.6 77 -5.9 21.4
05:40 1021 30.15 850 25.1 -2.2 28.1 75 -6 21.2
05:45 1021 30.15 850 25.1 -2.2 28.1 78 -5.5 22.1
05:50 1021 30.15 850 25.1 -2.6 27.4 79 -5.8 21.6
05:55 1021 30.15 850 25.1 -2.5 27.5 78 -5.9 21.4
06:00 1021 30.15 850 25.1 -2.3 27.9 78 -5.7 21.8
06:05 1021 30.15 850 25.1 -2.6 27.3 80 -5.6 22
06:10 1021 30.15 850 25.1 -3.2 26.3 81 -6 21.1
06:15 1021 30.15 850 25.1 -3.4 26 80 -6.3 20.7
06:20 1021 30.15 850 25.1 -3.4 25.9 80 -6.3 20.7
06:25 1021 30.15 850 25.1 -3.3 26.1 80 -6.3 20.7
06:30 1021 30.15 850 25.1 -3.5 25.7 81 -6.4 20.5
06:35 1021 30.15 850 25.1 -3.7 25.4 81 -6.5 20.3
06:40 1021 30.15 851 25.13 -3.6 25.5 81 -6.4 20.4
06:45 1021 30.15 851 25.13 -3.3 26 80 -6.2 20.8
06:50 1021 30.15 851 25.13 -3.2 26.3 79 -6.3 20.6
06:55 1021 30.15 851 25.13 -2.9 26.7 77 -6.4 20.4
07:00 1021 30.15 851 25.13 -2.8 27 78 -6.1 21.1
07:05 1021 30.15 851 25.13 -2.5 27.5 76 -6.1 21
07:10 1022 30.18 851 25.13 -2 28.4 76 -5.7 21.8
07:15 1022 30.18 851 25.13 -1.6 29.2 75 -5.4 22.3
07:20 1022 30.18 851 25.13 -1.6 29.2 72 -5.9 21.3
07:25 1022 30.18 851 25.13 -1.9 28.6 73 -6 21.2
07:30 1022 30.18 851 25.13 -2.2 28 75 -6.1 21.1
07:35 1022 30.18 851 25.13 -2.4 27.7 76 -6.1 21
07:40 1022 30.18 851 25.13 -2.4 27.6 77 -6 21.2
07:45 1022 30.18 851 25.13 -2.5 27.5 76 -6.1 21
07:50 1022 30.18 851 25.13 -2.3 27.9 75 -6.1 21
07:55 1022 30.18 851 25.13 -2 28.4 74 -6.1 21
08:00 1022 30.18 851 25.13 -1.8 28.7 72 -6.2 20.8
08:05 1022 30.18 851 25.13 -1.5 29.3 70 -6.3 20.7
08:10 1022 30.18 851 25.13 -1.4 29.5 72 -5.8 21.6
08:15 1022 30.18 851 25.13 -1.1 29.9 70 -5.9 21.3
08:20 1022 30.18 851 25.13 -1.1 30.1 70 -5.9 21.3
08:25 1022 30.18 851 25.13 -0.9 30.5 67 -6.3 20.7
08:30 1022 30.18 851 25.13 -0.5 31.1 68 -5.7 21.8
08:35 1022 30.18 851 25.13 0.1 32.1 65 -5.7 21.8
08:40 1022 30.18 851 25.13 0.1 32.2 67 -5.2 22.6
08:45 1022 30.18 851 25.13 0.3 32.5 66 -5.4 22.3
08:50 1022 30.18 851 25.13 0.7 33.3 64 -5.2 22.6
08:55 1022 30.18 851 25.13 1.3 34.3 62 -5.3 22.5
09:00 1022 30.18 851 25.13 1.1 33.9 64 -5 22.9
09:05 1022 30.18 851 25.13 1.2 34.1 62 -5.3 22.5
09:10 1022 30.18 851 25.13 1.2 34.1 67 -4.3 24.2
09:15 1022 30.18 851 25.13 1.5 34.7 64 -4.5 23.8
09:20 1022 30.18 851 25.13 1.4 34.5 62 -5 22.9
09:25 1022 30.18 851 25.13 1.3 34.4 62 -5.1 22.8
09:30 1022 30.18 851 25.13 1.3 34.3 64 -4.8 23.3
09:35 1022 30.18 851 25.13 2.1 35.7 58 -5.3 22.5
09:40 1022 30.18 851 25.13 2.8 37.1 58 -4.7 23.6
09:45 1021 30.15 851 25.13 2.7 36.8 58 -4.7 23.6
09:50 1021 30.15 851 25.13 3 37.5 57 -4.7 23.6
09:55 1021 30.15 851 25.13 3.3 38 55 -4.8 23.4
10:00 1021 30.15 851 25.13 3.2 37.8 55 -5.1 22.8
10:05 1021 30.15 851 25.13 2.9 37.2 56 -5.1 22.8
10:10 1021 30.15 850 25.1 3.7 38.7 53 -5 23.1
10:15 1021 30.15 850 25.1 4.5 40.1 49 -5.2 22.6
10:20 1021 30.15 851 25.13 4.1 39.4 55 -4.1 24.6
10:25 1021 30.15 851 25.13 4.5 40.2 50 -5 22.9
10:30 1021 30.15 851 25.13 4.6 40.3 48 -5.5 22.2
10:35 1021 30.15 851 25.13 4.3 39.7 49 -5.6 21.9
10:40 1021 30.15 850 25.1 3.6 38.5 54 -4.8 23.4
10:45 1021 30.15 850 25.1 3.9 39.1 51 -5.3 22.5
10:50 1021 30.15 850 25.1 4.9 40.8 48 -5.2 22.6
10:55 1021 30.15 850 25.1 4.8 40.6 52 -4.1 24.6
11:00 1021 30.15 850 25.1 5.4 41.7 46 -5.3 22.5
11:05 1021 30.15 850 25.1 5.5 41.9 43 -6.1 21
11:10 1021 30.15 850 25.1 6.1 43 41 -6.3 20.7
11:15 1021 30.15 850 25.1 5.3 41.6 44 -6 21.3
11:20 1021 30.15 850 25.1 5.3 41.5 44 -5.9 21.3
11:25 1021 30.15 850 25.1 4.8 40.7 44 -6.3 20.6
11:30 1021 30.15 850 25.1 4.5 40 47 -5.8 21.5
11:35 1021 30.15 850 25.1 5.1 41.2 42 -6.7 19.9
11:40 1021 30.15 850 25.1 4.9 40.7 47 -5.6 21.9
11:45 1021 30.15 850 25.1 5.4 41.7 43 -6.3 20.6
11:50 1021 30.15 850 25.1 5.8 42.5 46 -4.9 23.2
11:55 1021 30.15 850 25.1 5.4 41.8 42 -6.5 20.4
12:00 1021 30.15 850 25.1 5.4 41.7 44 -6 21.2
12:05 1021 30.15 850 25.1 6.5 43.6 39 -6.5 20.3
12:10 1021 30.15 850 25.1 7.4 45.3 36 -6.6 20.1
12:15 1020 30.12 850 25.1 7.2 44.9 33 -8 17.6
12:20 1020 30.12 850 25.1 6.1 42.9 36 -7.9 17.8
12:25 1020 30.12 850 25.1 6.5 43.7 31 -9.4 15.2
12:30 1020 30.12 849 25.07 7 44.6 32 -8.7 16.4
12:35 1020 30.12 849 25.07 7.3 45.2 32 -8.3 17.1
12:40 1020 30.12 849 25.07 6.8 44.2 33 -8.5 16.6
12:45 1020 30.12 849 25.07 7.2 45 32 -8.3 17
12:50 1020 30.12 849 25.07 7.9 46.1 30 -8.8 16.1
12:55 1020 30.12 849 25.07 7.6 45.6 27 -10.2 13.7
13:00 1020 30.12 849 25.07 8.1 46.6 28 -9.3 15.3
13:05 1020 30.12 849 25.07 7.8 46 28 -9.9 14.3
13:10 1020 30.12 849 25.07 7.8 46.1 28 -9.6 14.7
13:15 1020 30.12 849 25.07 9 48.3 26 -9.2 15.4
13:20 1020 30.12 849 25.07 9.2 48.5 25 -10 14
13:25 1020 30.12 849 25.07 8.5 47.3 25 -10.2 13.6
13:30 1020 30.12 849 25.07 8.3 47 27 -9.5 14.9
13:35 1020 30.12 849 25.07 7.9 46.3 27 -9.7 14.5
13:40 1020 30.12 849 25.07 8 46.4 26 -10.2 13.7
13:45 1020 30.12 849 25.07 8.4 47.2 27 -9.7 14.5
13:50 1019 30.09 849 25.07 9.7 49.4 24 -10.1 13.8
13:55 1019 30.09 849 25.07 9.2 48.5 26 -9.3 15.2
14:00 1019 30.09 849 25.07 8.6 47.4 27 -9.6 14.8
14:05 1019 30.09 848 25.04 9.1 48.4 25 -9.9 14.1
14:10 1019 30.09 848 25.04 9.3 48.8 24 -10 14
14:15 1019 30.09 848 25.04 10 49.9 24 -10 14.1
14:20 1019 30.09 848 25.04 9.1 48.3 24 -10.4 13.4
14:25 1019 30.09 848 25.04 9.1 48.4 24 -10.3 13.4
14:30 1019 30.09 848 25.04 8.5 47.3 24 -10.8 12.5
14:35 1019 30.09 848 25.04 8.5 47.3 25 -10.3 13.4
14:40 1019 30.09 848 25.04 9 48.1 25 -9.9 14.1
14:45 1019 30.09 848 25.04 9.6 49.2 23 -10.6 12.8
14:50 1019 30.09 848 25.04 10.8 51.4 23 -9.5 14.9
14:55 1019 30.09 848 25.04 10.7 51.2 23 -9.7 14.5
15:00 1019 30.09 848 25.04 9.2 48.5 25 -9.7 14.5
15:05 1019 30.09 848 25.04 9 48.1 23 -11 12.2
15:10 1019 30.09 848 25.04 8.8 47.8 23 -11 12.2
15:15 1019 30.09 848 25.04 9.1 48.3 24 -10.4 13.3
15:20 1018 30.06 848 25.04 9.3 48.7 23 -10.9 12.5
15:25 1018 30.06 848 25.04 9.8 49.7 22 -10.7 12.8
15:30 1018 30.06 848 25.04 11 51.8 21 -10.3 13.5
15:35 1018 30.06 847 25.01 10.5 50.8 22 -10.4 13.4
15:40 1018 30.06 847 25.01 9.6 49.3 22 -11 12.3
15:45 1018 30.06 847 25.01 9.6 49.3 22 -10.9 12.5
15:50 1018 30.06 847 25.01 9.1 48.4 24 -10.4 13.2
15:55 1018 30.06 847 25.01 9.4 48.8 23 -10.7 12.8
16:00 1018 30.06 847 25.01 9.7 49.4 23 -10.7 12.7
16:05 1018 30.06 847 25.01 9.9 49.8 23 -10.1 13.9
16:10 1018 30.06 847 25.01 9.8 49.7 23 -10.3 13.5
16:15 1018 30.06 847 25.01 10.4 50.7 23 -10 14
16:20 1017 30.03 847 25.01 9.8 49.7 23 -10.3 13.5
16:25 1017 30.03 847 25.01 10 50 23 -10.3 13.4
16:30 1017 30.03 847 25.01 10.6 51 22 -10.1 13.8
16:35 1017 30.03 847 25.01 11 51.8 22 -9.8 14.4
16:40 1017 30.03 847 25.01 10.2 50.3 22 -10.6 13
16:45 1017 30.03 846 24.98 11.1 52 21 -10.3 13.4
16:50 1017 30.03 846 24.98 11 51.9 22 -10 14
16:55 1017 30.03 846 24.98 11.4 52.5 22 -9.7 14.6
17:00 1017 30.03 846 24.98 10.1 50.2 23 -10.3 13.5
17:05 1017 30.03 846 24.98 10 50 23 -10.2 13.6
17:10 1017 30.03 846 24.98 9.8 49.6 23 -10.1 13.8
17:15 1017 30.03 846 24.98 10.2 50.3 23 -10.3 13.5
17:20 1017 30.03 846 24.98 10.5 50.9 23 -9.5 14.8
17:25 1017 30.03 846 24.98 10.3 50.5 24 -9.5 14.9
17:30 1017 30.03 846 24.98 9.9 49.9 25 -9.4 15
17:35 1017 30.03 846 24.98 9.9 49.7 26 -8.7 16.4
17:40 1017 30.03 846 24.98 9.6 49.3 25 -9.6 14.7
17:45 1017 30.03 846 24.98 9.5 49.1 25 -9.8 14.4
17:50 1017 30.03 846 24.98 9.9 49.8 25 -9.1 15.6
17:55 1017 30.03 846 24.98 10 50 25 -8.9 15.9
18:00 1017 30.03 846 24.98 10 49.9 26 -8.7 16.3
18:05 1017 30.03 846 24.98 9.8 49.7 26 -8.7 16.4
18:10 1017 30.03 846 24.98 9.8 49.6 26 -8.8 16.2
18:15 1017 30.03 846 24.98 9.9 49.7 25 -9.2 15.4
18:20 1017 30.03 846 24.98 9.9 49.8 26 -8.9 16
18:25 1017 30.03 846 24.98 9.9 49.8 25 -9.3 15.2
18:30 1017 30.03 846 24.98 9.8 49.6 26 -9 15.7
18:35 1017 30.03 846 24.98 9.8 49.6 26 -8.7 16.4
18:40 1017 30.03 846 24.98 9.7 49.5 26 -8.8 16.1
18:45 1017 30.03 846 24.98 9.7 49.5 27 -8.4 16.9
18:50 1017 30.03 846 24.98 9.8 49.6 27 -8.2 17.3
18:55 1017 30.03 846 24.98 9.6 49.2 27 -8.3 17
19:00 1017 30.03 846 24.98 9.4 48.9 28 -8.2 17.2
19:05 1017 30.03 846 24.98 9.2 48.5 29 -8.2 17.3
19:10 1017 30.03 846 24.98 9 48.2 28 -8.5 16.7
19:15 1017 30.03 846 24.98 8.9 48 29 -8.2 17.2
19:20 1017 30.03 846 24.98 8.8 47.9 29 -8.3 17.1
19:25 1017 30.03 846 24.98 8.8 47.8 30 -8 17.5
19:30 1017 30.03 846 24.98 8.6 47.6 29 -8.2 17.2
19:35 1017 30.03 846 24.98 8.5 47.4 30 -8.3 17.1
19:40 1017 30.03 846 24.98 8.5 47.3 29 -8.4 16.9
19:45 1017 30.03 846 24.98 8.5 47.3 31 -7.8 17.9
19:50 1017 30.03 846 24.98 8.4 47.2 30 -8 17.6
19:55 1017 30.03 846 24.98 8.4 47 31 -8 17.7
20:00 1017 30.03 846 24.98 8.3 46.9 31 -7.8 18
20:05 1017 30.03 846 24.98 8.2 46.7 32 -7.7 18.1
20:10 1017 30.03 846 24.98 8.1 46.7 33 -7.3 18.8
20:15 1017 30.03 846 24.98 8.1 46.7 32 -7.4 18.7
20:20 1017 30.03 846 24.98 8.1 46.6 35 -6.4 20.6
20:25 1017 30.03 846 24.98 8.1 46.6 33 -7.3 18.8
20:30 1017 30.03 846 24.98 8.1 46.7 33 -7.3 18.8
20:35 1017 30.03 846 24.98 8.1 46.6 31 -8.1 17.4
20:40 1017 30.03 846 24.98 8.1 46.6 31 -8 17.6
20:45 1017 30.03 846 24.98 8 46.4 31 -7.9 17.8
20:50 1017 30.03 846 24.98 8 46.3 31 -8 17.6
20:55 1017 30.03 846 24.98 8 46.4 33 -7.3 18.8
21:00 1017 30.03 847 25.01 7.9 46.2 33 -7.4 18.7
21:05 1017 30.03 847 25.01 7.8 46 34 -7.1 19.1
21:10 1017 30.03 847 25.01 7.7 45.9 37 -6.1 21
21:15 1018 30.06 847 25.01 7.6 45.6 39 -5.4 22.2
21:20 1018 30.06 847 25.01 7.5 45.4 42 -4.5 23.8
21:25 1018 30.06 847 25.01 7.3 45.1 44 -4.2 24.5
21:30 1018 30.06 847 25.01 7.1 44.8 45 -4 24.8
21:35 1018 30.06 847 25.01 7 44.6 47 -3.7 25.4
21:40 1018 30.06 847 25.01 6.9 44.4 47 -3.6 25.5
21:45 1018 30.06 847 25.01 6.9 44.3 48 -3.4 25.9
21:50 1018 30.06 847 25.01 6.8 44.2 50 -2.8 26.9
21:55 1018 30.06 847 25.01 6.4 43.6 54 -2.2 28
22:00 1018 30.06 847 25.01 6.2 43.1 55 -2.2 28.1
22:05 1018 30.06 847 25.01 5.9 42.7 57 -2 28.3
22:10 1018 30.06 847 25.01 5.8 42.5 58 -1.9 28.6
22:15 1018 30.06 847 25.01 5.7 42.3 59 -1.7 28.9
22:20 1018 30.06 847 25.01 5.5 42 62 -1.2 29.8
22:25 1018 30.06 847 25.01 5.3 41.6 64 -0.9 30.5
22:30 1018 30.06 847 25.01 5.2 41.3 66 -0.8 30.6
22:35 1018 30.06 847 25.01 5.1 41.2 67 -0.5 31.1
22:40 1018 30.06 847 25.01 5 41 68 -0.4 31.3
22:45 1018 30.06 847 25.01 4.8 40.7 69 -0.3 31.4
22:50 1017 30.03 847 25.01 4.6 40.3 70 -0.3 31.5
22:55 1017 30.03 847 25.01 4.5 40.1 71 -0.3 31.5
23:00 1017 30.03 847 25.01 4.4 40 73 -0.1 31.9
23:05 1017 30.03 847 25.01 4.3 39.8 73 0 32
23:10 1017 30.03 847 25.01 4.3 39.7 74 0.1 32.2
23:15 1017 30.03 847 25.01 4.2 39.5 76 0.3 32.5
23:20 1018 30.06 847 25.01 4.1 39.5 76 0.4 32.7
23:25 1017 30.03 847 25.01 4.1 39.3 77 0.4 32.7
23:30 1017 30.03 847 25.01 4 39.2 78 0.5 33
23:35 1017 30.03 847 25.01 3.8 38.9 79 0.6 33.1
23:40 1017 30.03 847 25.01 3.7 38.7 80 0.7 33.2
23:45 1017 30.03 847 25.01 3.6 38.5 81 0.7 33.3
23:50 1017 30.03 847 25.01 3.5 38.3 82 0.7 33.2
23:55 1017 30.03 847 25.01 3.5 38.3 82 0.7 33.3
24:00 1017 30.03 847 25.01 3.4 38.1 82 0.7 33.2